createdAt,value
2022-10-17T00:00:35.010Z,91.90
2022-10-17T00:03:01.969Z,91.51
2022-10-17T00:05:28.639Z,92.06
2022-10-17T00:07:55.400Z,91.85
2022-10-17T00:10:22.875Z,91.91
2022-10-17T00:12:51.611Z,91.67
2022-10-17T00:15:20.227Z,91.71
2022-10-17T00:17:46.691Z,91.73
2022-10-17T00:20:13.683Z,91.84
2022-10-17T00:22:40.213Z,91.64
2022-10-17T00:25:07.123Z,91.88
2022-10-17T00:27:37.496Z,92.09
2022-10-17T00:30:05.770Z,92.13
2022-10-17T00:32:32.222Z,92.02
2022-10-17T00:34:59.173Z,92.03
2022-10-17T00:37:25.543Z,92.16
2022-10-17T00:39:55.379Z,92.18
2022-10-17T00:42:22.135Z,91.92
2022-10-17T00:44:48.424Z,91.85
2022-10-17T00:47:19.228Z,91.68
2022-10-17T00:49:45.886Z,91.37
2022-10-17T00:52:17.942Z,91.54
2022-10-17T00:54:48.240Z,91.32
2022-10-17T00:57:16.692Z,91.16
2022-10-17T00:59:46.826Z,91.11
2022-10-17T01:02:15.860Z,91.05
2022-10-17T01:04:45.076Z,91.00
2022-10-17T01:07:11.525Z,90.89
2022-10-17T01:09:39.274Z,90.77
2022-10-17T01:12:17.868Z,90.84
2022-10-17T01:14:57.981Z,90.92
2022-10-17T01:17:38.209Z,90.97
2022-10-17T01:20:16.734Z,90.96
2022-10-17T01:23:02.223Z,90.97
2022-10-17T01:26:06.446Z,91.19
2022-10-17T01:28:55.022Z,91.43
2022-10-17T01:31:59.756Z,91.22
2022-10-17T01:34:42.995Z,91.21
2022-10-17T01:37:25.180Z,91.40
2022-10-17T01:40:06.986Z,91.27
2022-10-17T01:42:42.435Z,91.17
2022-10-17T01:45:22.723Z,90.98
2022-10-17T01:47:52.204Z,90.91
2022-10-17T01:50:23.927Z,90.50
2022-10-17T01:52:59.948Z,90.28
2022-10-17T01:55:35.592Z,90.94
2022-10-17T01:58:16.598Z,90.91
2022-10-17T02:00:45.399Z,90.73
2022-10-17T02:03:16.485Z,90.75
2022-10-17T02:05:44.307Z,90.86
2022-10-17T02:08:11.201Z,90.97
2022-10-17T02:10:49.594Z,90.23
2022-10-17T02:13:31.532Z,89.99
2022-10-17T02:16:16.547Z,89.87
2022-10-17T02:19:01.869Z,89.76
2022-10-17T02:21:34.161Z,89.74
2022-10-17T02:24:12.514Z,89.71
2022-10-17T02:26:47.972Z,89.49
2022-10-17T02:29:21.927Z,89.31
2022-10-17T02:32:11.991Z,89.16
2022-10-17T02:34:49.173Z,88.77
2022-10-17T02:37:19.579Z,88.73
2022-10-17T02:39:48.071Z,88.63
2022-10-17T02:42:15.746Z,88.63
2022-10-17T02:44:45.047Z,88.62
2022-10-17T02:47:21.738Z,88.23
2022-10-17T02:49:51.816Z,88.54
2022-10-17T02:52:27.957Z,88.53
2022-10-17T02:55:01.005Z,87.95
2022-10-17T02:57:36.995Z,87.60
2022-10-17T03:00:07.619Z,87.59
2022-10-17T03:02:45.251Z,87.47
2022-10-17T03:05:15.083Z,87.30
2022-10-17T03:07:43.874Z,87.21
2022-10-17T03:10:10.349Z,87.05
2022-10-17T03:12:36.805Z,86.76
2022-10-17T03:15:04.029Z,86.76
2022-10-17T03:17:30.480Z,86.19
2022-10-17T03:19:56.880Z,86.07
2022-10-17T03:22:23.377Z,86.26
2022-10-17T03:24:50.464Z,86.22
2022-10-17T03:27:17.216Z,85.91
2022-10-17T03:29:43.652Z,85.97
2022-10-17T03:32:10.440Z,86.05
2022-10-17T03:34:36.827Z,86.09
2022-10-17T03:37:03.277Z,86.04
2022-10-17T03:39:29.904Z,85.81
2022-10-17T03:41:56.458Z,85.77
2022-10-17T03:44:22.945Z,85.66
2022-10-17T03:46:49.298Z,85.15
2022-10-17T03:49:15.661Z,85.20
2022-10-17T03:51:42.089Z,85.31
2022-10-17T03:54:08.524Z,85.04
2022-10-17T03:56:34.974Z,85.34
2022-10-17T03:59:01.416Z,85.20
2022-10-17T04:01:27.883Z,85.27
2022-10-17T04:03:56.790Z,85.25
2022-10-17T04:06:23.904Z,85.20
2022-10-17T04:08:50.381Z,85.31
2022-10-17T04:11:20.070Z,85.18
2022-10-17T04:13:47.079Z,85.44
2022-10-17T04:16:16.263Z,85.20
2022-10-17T04:18:43.175Z,84.99
2022-10-17T04:21:10.223Z,84.64
2022-10-17T04:23:36.689Z,85.01
2022-10-17T04:26:04.797Z,84.81
2022-10-17T04:28:32.173Z,84.72
2022-10-17T04:31:00.623Z,84.52
2022-10-17T04:33:27.575Z,84.50
2022-10-17T04:36:05.331Z,84.87
2022-10-17T04:38:32.321Z,84.42
2022-10-17T04:41:03.045Z,84.37
2022-10-17T04:43:34.397Z,84.57
2022-10-17T04:46:02.819Z,84.77
2022-10-17T04:48:30.081Z,84.84
2022-10-17T04:50:58.023Z,84.72
2022-10-17T04:53:24.994Z,85.01
2022-10-17T04:55:51.561Z,85.02
2022-10-17T04:58:19.255Z,85.27
2022-10-17T05:00:46.043Z,85.26
2022-10-17T05:03:12.912Z,85.29
2022-10-17T05:05:41.018Z,85.27
2022-10-17T05:08:09.869Z,85.47
2022-10-17T05:10:41.396Z,85.70
2022-10-17T05:13:08.774Z,85.58
2022-10-17T05:15:36.243Z,85.44
2022-10-17T05:18:04.284Z,85.40
2022-10-17T05:20:31.236Z,85.45
2022-10-17T05:23:00.476Z,85.54
2022-10-17T05:25:26.894Z,85.42
2022-10-17T05:27:53.795Z,85.45
2022-10-17T05:30:20.687Z,85.25
2022-10-17T05:32:47.065Z,85.25
2022-10-17T05:35:13.432Z,85.06
2022-10-17T05:37:39.907Z,85.34
2022-10-17T05:40:06.910Z,85.16
2022-10-17T05:42:33.603Z,85.23
2022-10-17T05:45:00.247Z,85.17
2022-10-17T05:47:28.415Z,85.24
2022-10-17T05:49:55.062Z,85.08
2022-10-17T05:52:21.441Z,84.73
2022-10-17T05:54:47.849Z,84.57
2022-10-17T05:57:15.553Z,84.75
2022-10-17T05:59:41.940Z,84.81
2022-10-17T06:02:10.898Z,84.87
2022-10-17T06:04:38.009Z,84.69
2022-10-17T06:07:06.365Z,84.63
2022-10-17T06:09:32.910Z,84.61
2022-10-17T06:11:59.292Z,84.71
2022-10-17T06:14:25.678Z,84.81
2022-10-17T06:16:52.076Z,84.67
2022-10-17T06:19:18.826Z,84.55
2022-10-17T06:21:45.160Z,84.14
2022-10-17T06:24:11.609Z,84.01
2022-10-17T06:26:38.019Z,83.86
2022-10-17T06:32:34.918Z,83.24
2022-10-17T06:35:01.347Z,82.78
2022-10-17T06:37:35.305Z,82.59
2022-10-17T06:40:04.219Z,82.64
2022-10-17T06:42:31.548Z,82.64
2022-10-17T06:44:57.921Z,82.75
2022-10-17T06:47:24.448Z,82.63
2022-10-17T06:49:50.867Z,82.51
2022-10-17T06:52:17.402Z,82.26
2022-10-17T06:54:44.377Z,81.96
2022-10-17T06:57:10.853Z,81.49
2022-10-17T06:59:37.203Z,81.25
2022-10-17T07:02:03.748Z,80.75
2022-10-17T07:04:30.169Z,80.68
2022-10-17T07:06:56.617Z,80.55
2022-10-17T07:09:24.165Z,79.88
2022-10-17T07:11:50.547Z,79.27
2022-10-17T07:14:17.010Z,79.26
2022-10-17T07:16:43.397Z,79.69
2022-10-17T07:19:09.878Z,79.81
2022-10-17T07:21:39.048Z,79.37
2022-10-17T07:24:07.417Z,78.57
2022-10-17T07:26:33.815Z,78.90
2022-10-17T07:29:00.214Z,78.57
2022-10-17T07:31:26.684Z,78.65
2022-10-17T07:33:53.090Z,78.48
2022-10-17T07:36:19.610Z,78.69
2022-10-17T07:38:46.017Z,78.51
2022-10-17T07:41:16.596Z,78.47
2022-10-17T07:43:47.120Z,77.72
2022-10-17T07:46:13.545Z,76.99
2022-10-17T07:48:40.163Z,76.19
2022-10-17T07:51:08.689Z,75.41
2022-10-17T07:53:37.340Z,74.23
2022-10-17T07:56:08.611Z,74.99
2022-10-17T07:58:36.467Z,74.31
2022-10-17T08:01:04.436Z,74.19
2022-10-17T08:03:30.837Z,74.17
2022-10-17T08:05:59.135Z,74.11
2022-10-17T08:08:25.918Z,73.59
2022-10-17T08:10:52.992Z,73.24
2022-10-17T08:13:19.647Z,73.01
2022-10-17T08:15:47.826Z,72.62
2022-10-17T08:18:18.218Z,73.14
2022-10-17T08:20:44.891Z,72.60
2022-10-17T08:23:11.502Z,72.73
2022-10-17T08:25:39.667Z,72.46
2022-10-17T08:30:34.259Z,72.19
2022-10-17T08:33:00.714Z,72.09
2022-10-17T08:35:27.301Z,73.38
2022-10-17T08:37:53.820Z,72.79
2022-10-17T08:40:29.064Z,72.86
2022-10-17T08:43:20.988Z,73.33
2022-10-17T08:46:03.275Z,72.63
2022-10-17T08:48:34.661Z,72.38
2022-10-17T08:51:21.090Z,72.82
2022-10-17T08:54:01.432Z,73.85
2022-10-17T08:56:55.322Z,73.94
2022-10-17T08:59:26.976Z,73.83
2022-10-17T09:02:02.772Z,74.02
2022-10-17T09:04:35.414Z,74.17
2022-10-17T09:07:05.775Z,73.34
2022-10-17T09:09:57.971Z,73.61
2022-10-17T09:12:31.242Z,72.42
2022-10-17T09:15:22.494Z,73.30
2022-10-17T09:17:58.106Z,73.62
2022-10-17T09:20:30.944Z,73.81
2022-10-17T09:23:00.404Z,74.42
2022-10-17T09:25:32.000Z,74.17
2022-10-17T09:28:10.475Z,74.32
2022-10-17T09:31:04.275Z,74.39
2022-10-17T09:33:53.250Z,74.47
2022-10-17T09:36:24.497Z,74.22
2022-10-17T09:38:56.512Z,74.16
2022-10-17T09:41:50.520Z,73.90
2022-10-17T09:44:23.498Z,74.26
2022-10-17T09:47:04.493Z,74.28
2022-10-17T09:49:42.779Z,74.85
2022-10-17T09:52:14.823Z,75.06
2022-10-17T09:54:48.006Z,75.01
2022-10-17T09:57:16.674Z,75.14
2022-10-17T09:59:46.939Z,75.15
2022-10-17T10:02:13.290Z,75.57
2022-10-17T10:05:06.045Z,74.83
2022-10-17T10:07:36.780Z,75.07
2022-10-17T10:10:06.162Z,74.76
2022-10-17T10:12:35.972Z,74.33
2022-10-17T10:15:22.601Z,74.18
2022-10-17T10:17:49.233Z,74.54
2022-10-17T10:20:36.707Z,74.29
2022-10-17T10:23:07.428Z,73.82
2022-10-17T10:25:35.425Z,73.91
2022-10-17T10:28:02.713Z,74.14
2022-10-17T10:30:34.858Z,74.20
2022-10-17T10:33:11.396Z,73.96
2022-10-17T10:35:38.043Z,73.70
2022-10-17T10:38:13.659Z,73.62
2022-10-17T10:40:54.536Z,73.33
2022-10-17T10:43:37.793Z,73.16
2022-10-17T10:46:16.023Z,72.95
2022-10-17T10:48:50.412Z,72.86
2022-10-17T10:51:23.621Z,72.73
2022-10-17T10:53:56.376Z,72.95
2022-10-17T10:56:38.225Z,72.81
2022-10-17T10:59:13.738Z,72.92
2022-10-17T11:01:56.258Z,72.93
2022-10-17T11:04:57.141Z,73.08
2022-10-17T11:07:46.185Z,72.93
2022-10-17T11:10:21.723Z,72.98
2022-10-17T11:13:09.309Z,72.94
2022-10-17T11:16:02.195Z,72.99
2022-10-17T11:18:33.528Z,73.06
2022-10-17T11:21:05.422Z,73.07
2022-10-17T11:23:40.057Z,73.10
2022-10-17T11:26:13.979Z,73.20
2022-10-17T11:28:40.455Z,73.03
2022-10-17T11:31:13.249Z,73.35
2022-10-17T11:33:49.584Z,73.41
2022-10-17T11:36:19.615Z,73.53
2022-10-17T11:38:52.658Z,73.45
2022-10-17T11:41:35.199Z,73.54
2022-10-17T11:44:15.663Z,73.59
2022-10-17T11:46:43.182Z,73.68
2022-10-17T11:49:20.136Z,73.14
2022-10-17T11:52:44.033Z,73.04
2022-10-17T11:55:31.791Z,72.87
2022-10-17T11:58:19.381Z,73.44
2022-10-17T12:01:15.372Z,73.50
2022-10-17T12:04:05.870Z,73.35
2022-10-17T12:07:15.642Z,73.55
2022-10-17T12:09:59.280Z,73.40
2022-10-17T12:12:29.294Z,73.29
2022-10-17T12:15:13.908Z,73.31
2022-10-17T12:17:45.978Z,73.92
2022-10-17T12:20:23.386Z,74.42
2022-10-17T12:22:52.040Z,74.72
2022-10-17T12:25:32.104Z,74.77
2022-10-17T12:28:17.393Z,75.00
2022-10-17T12:30:49.971Z,75.02
2022-10-17T12:33:22.600Z,74.74
2022-10-17T12:35:51.248Z,74.75
2022-10-17T12:38:17.580Z,74.64
2022-10-17T12:40:48.422Z,74.31
2022-10-17T12:43:15.387Z,74.87
2022-10-17T12:46:04.144Z,75.14
2022-10-17T12:48:33.502Z,75.69
2022-10-17T12:51:30.634Z,75.74
2022-10-17T12:53:59.240Z,76.11
2022-10-17T12:56:37.329Z,75.64
2022-10-17T12:59:24.702Z,75.88
2022-10-17T13:01:56.182Z,75.64
2022-10-17T13:04:23.400Z,75.26
2022-10-17T13:06:55.535Z,75.43
2022-10-17T13:09:29.364Z,75.55
2022-10-17T13:11:59.615Z,75.17
2022-10-17T13:14:28.233Z,75.50
2022-10-17T13:17:07.420Z,74.63
2022-10-17T13:19:46.225Z,73.28
2022-10-17T13:22:17.974Z,74.65
2022-10-17T13:24:44.497Z,73.47
2022-10-17T13:27:27.475Z,73.46
2022-10-17T13:29:56.245Z,72.79
2022-10-17T13:32:24.128Z,73.11
2022-10-17T13:35:11.037Z,72.48
2022-10-17T13:37:40.660Z,72.43
2022-10-17T13:40:40.892Z,71.73
2022-10-17T13:43:05.899Z,71.78
2022-10-17T13:45:34.872Z,71.73
2022-10-17T13:48:05.236Z,71.19
2022-10-17T13:50:44.532Z,70.76
2022-10-17T13:53:30.905Z,70.92
2022-10-17T13:56:28.019Z,70.96
2022-10-17T13:58:52.616Z,70.32
2022-10-17T14:01:21.222Z,69.51
2022-10-17T14:03:51.785Z,69.59
2022-10-17T14:06:26.154Z,68.68
2022-10-17T14:08:55.299Z,68.64
2022-10-17T14:11:32.518Z,68.46
2022-10-17T14:14:00.687Z,68.44
2022-10-17T14:16:40.610Z,68.12
2022-10-17T14:19:19.530Z,67.99
2022-10-17T14:21:48.964Z,68.34
2022-10-17T14:24:35.750Z,68.30
2022-10-17T14:27:02.390Z,68.49
2022-10-17T14:29:51.087Z,68.36
2022-10-17T14:32:17.981Z,68.15
2022-10-17T14:34:46.533Z,68.49
2022-10-17T14:37:34.385Z,68.70
2022-10-17T14:40:02.881Z,68.91
2022-10-17T14:42:29.358Z,69.22
2022-10-17T14:45:05.611Z,69.48
2022-10-17T14:47:43.109Z,69.51
2022-10-17T14:50:10.141Z,69.88
2022-10-17T14:52:38.788Z,70.12
2022-10-17T14:55:23.346Z,70.17
2022-10-17T14:57:49.988Z,70.36
2022-10-17T15:00:19.253Z,70.10
2022-10-17T15:02:46.630Z,70.34
2022-10-17T15:05:14.363Z,70.07
2022-10-17T15:07:41.757Z,70.14
2022-10-17T15:10:21.371Z,69.99
2022-10-17T15:12:56.234Z,70.14
2022-10-17T15:15:25.353Z,70.35
2022-10-17T15:17:51.765Z,70.15
2022-10-17T15:20:19.226Z,69.85
2022-10-17T15:22:45.701Z,70.10
2022-10-17T15:25:12.146Z,70.21
2022-10-17T15:27:38.535Z,70.59
2022-10-17T15:30:20.676Z,70.72
2022-10-17T15:32:49.057Z,71.19
2022-10-17T15:35:16.416Z,71.20
2022-10-17T15:37:43.401Z,71.37
2022-10-17T15:40:19.554Z,71.32
2022-10-17T15:42:45.960Z,71.09
2022-10-17T15:45:15.694Z,71.20
2022-10-17T15:47:43.984Z,71.52
2022-10-17T15:50:14.247Z,71.66
2022-10-17T15:52:41.423Z,72.50
2022-10-17T15:55:09.866Z,73.29
2022-10-17T15:57:40.323Z,73.85
2022-10-17T16:00:16.606Z,74.08
2022-10-17T16:02:43.729Z,74.45
2022-10-17T16:05:16.150Z,74.81
2022-10-17T16:07:46.880Z,75.04
2022-10-17T16:10:14.750Z,75.26
2022-10-17T16:12:43.958Z,75.34
2022-10-17T16:15:15.809Z,75.56
2022-10-17T16:17:43.824Z,75.78
2022-10-17T16:20:14.604Z,76.65
2022-10-17T16:22:44.120Z,78.47
2022-10-17T16:25:25.877Z,80.52
2022-10-17T16:27:54.737Z,83.09
2022-10-17T16:30:23.871Z,84.73
2022-10-17T16:32:50.623Z,85.23
2022-10-17T16:35:19.870Z,86.97
2022-10-17T16:37:47.451Z,88.27
2022-10-17T16:40:14.704Z,89.03
2022-10-17T16:42:41.170Z,89.84
2022-10-17T16:45:08.182Z,89.87
2022-10-17T16:47:34.547Z,90.44
2022-10-17T16:50:00.919Z,90.98
2022-10-17T16:52:27.494Z,91.58
2022-10-17T16:54:54.040Z,91.88
2022-10-17T16:57:20.495Z,91.23
2022-10-17T16:59:46.994Z,91.33
2022-10-17T17:02:16.344Z,91.48
2022-10-17T17:04:45.495Z,91.74
2022-10-17T17:07:11.881Z,90.80
2022-10-17T17:09:39.375Z,90.84
2022-10-17T17:12:06.491Z,91.41
2022-10-17T17:14:32.851Z,91.37
2022-10-17T17:16:59.435Z,91.50
2022-10-17T17:19:25.872Z,91.68
2022-10-17T17:21:52.337Z,91.53
2022-10-17T17:24:23.945Z,91.57
2022-10-17T17:26:52.775Z,91.75
2022-10-17T17:29:19.921Z,91.88
2022-10-17T17:31:46.442Z,91.88
2022-10-17T17:34:17.192Z,92.07
2022-10-17T17:36:44.700Z,91.75
2022-10-17T17:39:13.669Z,91.85
2022-10-17T17:41:41.392Z,92.13
2022-10-17T17:44:12.419Z,92.11
2022-10-17T17:46:43.493Z,92.26
2022-10-17T17:49:11.391Z,91.99
2022-10-17T17:51:38.158Z,92.21
2022-10-17T17:57:34.668Z,92.53
2022-10-17T18:00:01.044Z,92.60
2022-10-17T18:02:27.655Z,92.26
2022-10-17T18:04:54.155Z,92.38
2022-10-17T18:07:20.551Z,92.51
2022-10-17T18:09:47.987Z,92.17
2022-10-17T18:12:14.428Z,92.76
2022-10-17T18:14:40.880Z,92.05
2022-10-17T18:17:07.332Z,91.94
2022-10-17T18:19:33.777Z,92.23
2022-10-17T18:22:00.323Z,92.26
2022-10-17T18:24:26.692Z,91.92
2022-10-17T18:26:56.003Z,92.22
2022-10-17T18:29:22.384Z,92.09
2022-10-17T18:31:48.819Z,91.94
2022-10-17T18:34:15.223Z,92.01
2022-10-17T18:36:41.688Z,91.92
2022-10-17T18:39:08.118Z,91.85
2022-10-17T18:41:35.252Z,91.28
2022-10-17T18:44:05.321Z,91.37
2022-10-17T18:46:40.553Z,91.23
2022-10-17T18:49:11.713Z,91.34
2022-10-17T18:51:38.650Z,91.33
2022-10-17T18:54:05.122Z,90.89
2022-10-17T18:56:31.767Z,90.52
2022-10-17T18:58:58.245Z,90.53
2022-10-17T19:01:26.808Z,90.71
2022-10-17T19:03:56.165Z,90.69
2022-10-17T19:06:25.593Z,90.66
2022-10-17T19:08:52.112Z,90.80
2022-10-17T19:11:25.197Z,90.84
2022-10-17T19:13:52.540Z,91.14
2022-10-17T19:16:22.915Z,91.11
2022-10-17T19:19:23.080Z,91.40
2022-10-17T19:21:50.265Z,91.58
2022-10-17T19:24:19.529Z,91.78
2022-10-17T19:26:47.517Z,91.63
2022-10-17T19:29:15.558Z,91.56
2022-10-17T19:31:44.372Z,91.85
2022-10-17T19:34:12.144Z,91.72
2022-10-17T19:36:38.980Z,91.80
2022-10-17T19:39:10.495Z,91.80
2022-10-17T19:41:36.883Z,91.55
2022-10-17T19:44:03.444Z,91.35
2022-10-17T19:46:30.673Z,91.58
2022-10-17T19:48:58.858Z,91.49
2022-10-17T19:51:26.301Z,91.43
2022-10-17T19:53:54.810Z,91.65
2022-10-17T19:56:22.823Z,90.78
2022-10-17T19:58:50.306Z,90.94
2022-10-17T20:01:28.983Z,90.65
2022-10-17T20:03:55.810Z,90.97
2022-10-17T20:06:22.963Z,91.20
2022-10-17T20:08:49.743Z,91.05
2022-10-17T20:11:24.187Z,91.13
2022-10-17T20:13:50.835Z,91.34
2022-10-17T20:16:21.305Z,91.36
2022-10-17T20:18:49.564Z,90.96
2022-10-17T20:21:19.602Z,91.17
2022-10-17T20:23:47.801Z,91.61
2022-10-17T20:29:10.600Z,91.75
2022-10-17T20:31:37.363Z,92.10
2022-10-17T20:34:04.103Z,92.20
2022-10-17T20:36:30.623Z,92.17
2022-10-17T20:38:58.525Z,92.38
2022-10-17T20:41:26.315Z,92.31
2022-10-17T20:43:54.787Z,92.43
2022-10-17T20:46:36.446Z,92.27
2022-10-17T20:49:07.537Z,92.09
2022-10-17T20:51:35.112Z,92.26
2022-10-17T20:54:02.715Z,92.41
2022-10-17T20:56:31.247Z,92.64
2022-10-17T20:59:04.814Z,92.47
2022-10-17T21:01:32.829Z,91.61
2022-10-17T21:04:10.612Z,91.82
2022-10-17T21:06:42.593Z,92.61
2022-10-17T21:09:09.173Z,92.67
2022-10-17T21:11:35.714Z,92.90
2022-10-17T21:14:05.387Z,92.39
2022-10-17T21:16:34.047Z,92.22
2022-10-17T21:19:03.303Z,92.10
2022-10-17T21:21:33.674Z,92.73
2022-10-17T21:24:02.573Z,93.30
2022-10-17T21:26:31.527Z,93.53
2022-10-17T21:28:59.263Z,93.71
2022-10-17T21:31:27.690Z,93.59
2022-10-17T21:33:57.734Z,93.86
2022-10-17T21:36:25.689Z,94.13
2022-10-17T21:38:53.823Z,94.11
2022-10-17T21:41:23.936Z,94.10
2022-10-17T21:43:53.976Z,94.16
2022-10-17T21:46:21.066Z,94.41
2022-10-17T21:48:48.583Z,94.28
2022-10-17T21:51:17.429Z,94.00
2022-10-17T21:53:44.317Z,94.31
2022-10-17T21:56:14.103Z,94.34
2022-10-17T21:58:41.333Z,94.54
2022-10-17T22:01:22.763Z,94.33
2022-10-17T22:03:52.059Z,93.97
2022-10-17T22:09:17.567Z,93.89
2022-10-17T22:11:46.708Z,94.23
2022-10-17T22:14:17.295Z,94.59
2022-10-17T22:16:47.328Z,94.20
2022-10-17T22:19:18.242Z,94.22
2022-10-17T22:21:44.728Z,94.62
2022-10-17T22:24:13.256Z,94.70
2022-10-17T22:26:40.551Z,94.71
2022-10-17T22:29:11.427Z,94.69
2022-10-17T22:31:38.507Z,94.47
2022-10-17T22:34:05.889Z,94.82
2022-10-17T22:36:33.556Z,94.76
2022-10-17T22:39:00.181Z,94.92
2022-10-17T22:41:26.602Z,94.92
2022-10-17T22:43:52.986Z,94.74
2022-10-17T22:46:19.524Z,94.79
2022-10-17T22:48:45.981Z,94.95
2022-10-17T22:51:13.050Z,94.64
2022-10-17T22:53:39.549Z,94.36
2022-10-17T22:56:09.857Z,94.63
2022-10-17T22:58:36.830Z,94.22
2022-10-17T23:01:05.798Z,94.29
2022-10-17T23:03:33.454Z,94.23
2022-10-17T23:06:00.243Z,94.25
2022-10-17T23:08:27.415Z,94.17
2022-10-17T23:10:54.111Z,94.66
2022-10-17T23:13:22.073Z,94.71
2022-10-17T23:15:53.533Z,94.56
2022-10-17T23:18:20.784Z,94.70
2022-10-17T23:20:47.990Z,94.69
2022-10-17T23:23:14.540Z,94.83
2022-10-17T23:25:41.100Z,94.52
2022-10-17T23:28:08.642Z,94.58
2022-10-17T23:30:36.427Z,94.78
2022-10-17T23:33:03.389Z,94.76
2022-10-17T23:35:29.898Z,94.71
2022-10-17T23:37:56.309Z,94.85
2022-10-17T23:40:22.764Z,94.85
2022-10-17T23:42:49.511Z,94.96
2022-10-17T23:45:16.609Z,94.85
2022-10-17T23:47:43.198Z,95.02
2022-10-17T23:50:09.962Z,95.15
2022-10-17T23:52:36.573Z,95.25
2022-10-17T23:55:03.360Z,95.00
